sensor_id;sensor_type;location;lat;lon;timestamp;P1;durP1;ratioP1;P2;durP2;ratioP2
66707;SDS011;53622;0.000;0.000;2022-12-29T00:01:04;3.45;;;2.00;;
66707;SDS011;53622;0.000;0.000;2022-12-29T00:03:35;2.15;;;1.88;;
66707;SDS011;53622;0.000;0.000;2022-12-29T00:06:04;2.22;;;1.70;;
66707;SDS011;53622;0.000;0.000;2022-12-29T00:08:34;2.00;;;1.60;;
66707;SDS011;53622;0.000;0.000;2022-12-29T00:11:10;2.22;;;1.80;;
66707;SDS011;53622;0.000;0.000;2022-12-29T00:13:41;1.60;;;1.50;;
66707;SDS011;53622;0.000;0.000;2022-12-29T00:16:28;2.22;;;1.73;;
66707;SDS011;53622;0.000;0.000;2022-12-29T00:19:00;2.13;;;1.50;;
66707;SDS011;53622;0.000;0.000;2022-12-29T00:21:30;1.70;;;1.58;;
66707;SDS011;53622;0.000;0.000;2022-12-29T00:24:17;1.95;;;1.63;;
66707;SDS011;53622;0.000;0.000;2022-12-29T00:27:10;1.60;;;1.50;;
66707;SDS011;53622;0.000;0.000;2022-12-29T00:29:58;1.88;;;1.65;;
66707;SDS011;53622;0.000;0.000;2022-12-29T00:32:44;2.78;;;1.83;;
66707;SDS011;53622;0.000;0.000;2022-12-29T00:35:33;2.25;;;1.63;;
66707;SDS011;53622;0.000;0.000;2022-12-29T00:38:07;1.80;;;1.70;;
66707;SDS011;53622;0.000;0.000;2022-12-29T00:40:57;2.20;;;1.77;;
66707;SDS011;53622;0.000;0.000;2022-12-29T00:43:44;1.77;;;1.67;;
66707;SDS011;53622;0.000;0.000;2022-12-29T00:46:31;1.60;;;1.50;;
66707;SDS011;53622;0.000;0.000;2022-12-29T00:49:01;2.22;;;1.90;;
66707;SDS011;53622;0.000;0.000;2022-12-29T00:51:49;1.92;;;1.50;;
66707;SDS011;53622;0.000;0.000;2022-12-29T00:54:19;2.38;;;1.63;;
66707;SDS011;53622;0.000;0.000;2022-12-29T00:56:49;2.28;;;1.73;;
66707;SDS011;53622;0.000;0.000;2022-12-29T00:59:19;1.60;;;1.50;;
66707;SDS011;53622;0.000;0.000;2022-12-29T01:01:51;1.80;;;1.45;;
66707;SDS011;53622;0.000;0.000;2022-12-29T01:04:22;3.08;;;1.45;;
66707;SDS011;53622;0.000;0.000;2022-12-29T01:06:54;1.90;;;1.70;;
66707;SDS011;53622;0.000;0.000;2022-12-29T01:09:24;2.50;;;1.63;;
66707;SDS011;53622;0.000;0.000;2022-12-29T01:12:11;2.10;;;1.85;;
66707;SDS011;53622;0.000;0.000;2022-12-29T01:14:41;3.10;;;1.55;;
66707;SDS011;53622;0.000;0.000;2022-12-29T01:17:10;2.10;;;1.60;;
66707;SDS011;53622;0.000;0.000;2022-12-29T01:19:40;2.25;;;1.63;;
66707;SDS011;53622;0.000;0.000;2022-12-29T01:22:10;2.45;;;1.83;;
66707;SDS011;53622;0.000;0.000;2022-12-29T01:24:39;2.13;;;1.73;;
66707;SDS011;53622;0.000;0.000;2022-12-29T01:27:09;1.77;;;1.67;;
66707;SDS011;53622;0.000;0.000;2022-12-29T01:29:38;2.63;;;1.48;;
66707;SDS011;53622;0.000;0.000;2022-12-29T01:32:07;2.80;;;1.50;;
66707;SDS011;53622;0.000;0.000;2022-12-29T01:34:38;1.80;;;1.58;;
66707;SDS011;53622;0.000;0.000;2022-12-29T01:37:07;2.80;;;1.58;;
66707;SDS011;53622;0.000;0.000;2022-12-29T01:39:38;2.20;;;1.70;;
66707;SDS011;53622;0.000;0.000;2022-12-29T01:42:11;2.53;;;1.85;;
66707;SDS011;53622;0.000;0.000;2022-12-29T01:44:49;2.00;;;1.60;;
66707;SDS011;53622;0.000;0.000;2022-12-29T01:47:22;1.85;;;1.40;;
66707;SDS011;53622;0.000;0.000;2022-12-29T01:49:58;1.70;;;1.60;;
66707;SDS011;53622;0.000;0.000;2022-12-29T01:52:32;1.63;;;1.52;;
66707;SDS011;53622;0.000;0.000;2022-12-29T01:55:05;1.63;;;1.48;;
66707;SDS011;53622;0.000;0.000;2022-12-29T01:57:36;4.70;;;1.50;;
66707;SDS011;53622;0.000;0.000;2022-12-29T02:00:09;1.60;;;1.50;;
66707;SDS011;53622;0.000;0.000;2022-12-29T02:02:41;1.80;;;1.48;;
66707;SDS011;53622;0.000;0.000;2022-12-29T02:05:14;1.30;;;1.20;;
66707;SDS011;53622;0.000;0.000;2022-12-29T02:07:48;2.05;;;1.60;;
66707;SDS011;53622;0.000;0.000;2022-12-29T02:10:21;1.35;;;1.25;;
66707;SDS011;53622;0.000;0.000;2022-12-29T02:12:55;2.42;;;1.73;;
66707;SDS011;53622;0.000;0.000;2022-12-29T02:15:26;2.10;;;1.90;;
66707;SDS011;53622;0.000;0.000;2022-12-29T02:18:08;2.03;;;1.52;;
66707;SDS011;53622;0.000;0.000;2022-12-29T02:27:07;2.85;;;1.90;;
66707;SDS011;53622;0.000;0.000;2022-12-29T02:29:58;2.03;;;1.83;;
66707;SDS011;53622;0.000;0.000;2022-12-29T02:32:41;1.75;;;1.33;;
66707;SDS011;53622;0.000;0.000;2022-12-29T02:35:20;1.55;;;1.45;;
66707;SDS011;53622;0.000;0.000;2022-12-29T02:38:02;1.70;;;1.60;;
66707;SDS011;53622;0.000;0.000;2022-12-29T02:40:41;1.60;;;1.48;;
66707;SDS011;53622;0.000;0.000;2022-12-29T02:43:19;1.73;;;1.63;;
66707;SDS011;53622;0.000;0.000;2022-12-29T02:45:55;2.55;;;1.63;;
66707;SDS011;53622;0.000;0.000;2022-12-29T02:48:29;1.52;;;1.30;;
66707;SDS011;53622;0.000;0.000;2022-12-29T02:51:02;2.65;;;1.60;;
66707;SDS011;53622;0.000;0.000;2022-12-29T02:53:34;2.00;;;1.80;;
66707;SDS011;53622;0.000;0.000;2022-12-29T02:56:22;1.60;;;1.40;;
66707;SDS011;53622;0.000;0.000;2022-12-29T02:58:51;1.88;;;1.65;;
66707;SDS011;53622;0.000;0.000;2022-12-29T03:01:22;1.73;;;1.60;;
66707;SDS011;53622;0.000;0.000;2022-12-29T03:04:06;2.13;;;1.40;;
66707;SDS011;53622;0.000;0.000;2022-12-29T03:06:50;2.15;;;1.77;;
66707;SDS011;53622;0.000;0.000;2022-12-29T03:09:26;1.90;;;1.70;;
66707;SDS011;53622;0.000;0.000;2022-12-29T03:12:07;1.75;;;1.65;;
66707;SDS011;53622;0.000;0.000;2022-12-29T03:14:47;1.83;;;1.65;;
66707;SDS011;53622;0.000;0.000;2022-12-29T03:17:40;2.70;;;1.70;;
66707;SDS011;53622;0.000;0.000;2022-12-29T03:20:19;2.17;;;1.60;;
66707;SDS011;53622;0.000;0.000;2022-12-29T03:22:56;3.38;;;1.60;;
66707;SDS011;53622;0.000;0.000;2022-12-29T03:25:32;2.03;;;1.60;;
66707;SDS011;53622;0.000;0.000;2022-12-29T03:28:08;2.03;;;1.83;;
66707;SDS011;53622;0.000;0.000;2022-12-29T03:30:44;1.52;;;1.42;;
66707;SDS011;53622;0.000;0.000;2022-12-29T03:33:18;2.78;;;2.03;;
66707;SDS011;53622;0.000;0.000;2022-12-29T03:35:55;1.75;;;1.65;;
66707;SDS011;53622;0.000;0.000;2022-12-29T03:38:31;1.80;;;1.70;;
66707;SDS011;53622;0.000;0.000;2022-12-29T03:41:05;1.70;;;1.60;;
66707;SDS011;53622;0.000;0.000;2022-12-29T03:43:37;1.60;;;1.50;;
66707;SDS011;53622;0.000;0.000;2022-12-29T03:46:07;2.78;;;1.90;;
66707;SDS011;53622;0.000;0.000;2022-12-29T03:48:39;2.03;;;1.70;;
66707;SDS011;53622;0.000;0.000;2022-12-29T03:51:10;1.95;;;1.67;;
66707;SDS011;53622;0.000;0.000;2022-12-29T03:53:40;1.83;;;1.63;;
66707;SDS011;53622;0.000;0.000;2022-12-29T03:56:10;2.33;;;1.70;;
66707;SDS011;53622;0.000;0.000;2022-12-29T03:58:40;2.30;;;1.65;;
66707;SDS011;53622;0.000;0.000;2022-12-29T04:01:14;1.85;;;1.67;;
66707;SDS011;53622;0.000;0.000;2022-12-29T04:03:44;2.17;;;1.58;;
66707;SDS011;53622;0.000;0.000;2022-12-29T04:06:15;2.25;;;2.05;;
66707;SDS011;53622;0.000;0.000;2022-12-29T04:08:57;1.83;;;1.73;;
66707;SDS011;53622;0.000;0.000;2022-12-29T04:11:27;2.30;;;1.85;;
66707;SDS011;53622;0.000;0.000;2022-12-29T04:14:00;1.70;;;1.60;;
66707;SDS011;53622;0.000;0.000;2022-12-29T04:16:31;1.95;;;1.63;;
66707;SDS011;53622;0.000;0.000;2022-12-29T04:19:05;1.73;;;1.63;;
66707;SDS011;53622;0.000;0.000;2022-12-29T04:21:38;2.17;;;1.98;;
66707;SDS011;53622;0.000;0.000;2022-12-29T04:24:08;2.13;;;1.70;;
66707;SDS011;53622;0.000;0.000;2022-12-29T04:26:40;4.85;;;2.05;;
66707;SDS011;53622;0.000;0.000;2022-12-29T04:29:34;2.00;;;1.80;;
66707;SDS011;53622;0.000;0.000;2022-12-29T04:32:03;2.10;;;1.90;;
66707;SDS011;53622;0.000;0.000;2022-12-29T04:34:37;1.73;;;1.63;;
66707;SDS011;53622;0.000;0.000;2022-12-29T04:37:08;2.00;;;1.80;;
66707;SDS011;53622;0.000;0.000;2022-12-29T04:39:37;2.28;;;2.08;;
66707;SDS011;53622;0.000;0.000;2022-12-29T04:42:08;1.77;;;1.67;;
66707;SDS011;53622;0.000;0.000;2022-12-29T04:44:37;2.00;;;1.80;;
66707;SDS011;53622;0.000;0.000;2022-12-29T04:47:21;1.73;;;1.60;;
66707;SDS011;53622;0.000;0.000;2022-12-29T04:50:10;2.45;;;1.92;;
66707;SDS011;53622;0.000;0.000;2022-12-29T04:52:44;2.33;;;2.10;;
66707;SDS011;53622;0.000;0.000;2022-12-29T04:55:14;1.83;;;1.73;;
66707;SDS011;53622;0.000;0.000;2022-12-29T04:57:44;2.10;;;1.90;;
66707;SDS011;53622;0.000;0.000;2022-12-29T05:00:17;2.25;;;1.90;;
66707;SDS011;53622;0.000;0.000;2022-12-29T05:02:47;1.90;;;1.80;;
66707;SDS011;53622;0.000;0.000;2022-12-29T05:05:17;1.90;;;1.80;;
66707;SDS011;53622;0.000;0.000;2022-12-29T05:07:50;2.65;;;1.98;;
66707;SDS011;53622;0.000;0.000;2022-12-29T05:10:20;1.98;;;1.88;;
66707;SDS011;53622;0.000;0.000;2022-12-29T05:12:52;1.90;;;1.70;;
66707;SDS011;53622;0.000;0.000;2022-12-29T05:15:22;2.47;;;1.90;;
66707;SDS011;53622;0.000;0.000;2022-12-29T05:17:51;3.67;;;2.00;;
66707;SDS011;53622;0.000;0.000;2022-12-29T05:20:21;2.00;;;1.80;;
66707;SDS011;53622;0.000;0.000;2022-12-29T05:22:52;2.30;;;2.10;;
66707;SDS011;53622;0.000;0.000;2022-12-29T05:25:21;2.08;;;1.88;;
66707;SDS011;53622;0.000;0.000;2022-12-29T05:28:03;1.75;;;1.65;;
66707;SDS011;53622;0.000;0.000;2022-12-29T05:30:59;2.08;;;1.88;;
66707;SDS011;53622;0.000;0.000;2022-12-29T05:33:30;2.10;;;1.90;;
66707;SDS011;53622;0.000;0.000;2022-12-29T05:36:03;2.10;;;1.90;;
66707;SDS011;53622;0.000;0.000;2022-12-29T05:38:36;2.38;;;2.17;;
66707;SDS011;53622;0.000;0.000;2022-12-29T05:41:06;2.28;;;2.08;;
66707;SDS011;53622;0.000;0.000;2022-12-29T05:43:50;2.30;;;2.10;;
66707;SDS011;53622;0.000;0.000;2022-12-29T05:46:31;1.80;;;1.70;;
66707;SDS011;53622;0.000;0.000;2022-12-29T05:49:15;2.55;;;2.35;;
66707;SDS011;53622;0.000;0.000;2022-12-29T05:52:17;2.60;;;2.40;;
66707;SDS011;53622;0.000;0.000;2022-12-29T05:54:47;1.98;;;1.77;;
66707;SDS011;53622;0.000;0.000;2022-12-29T05:57:20;2.20;;;2.00;;
66707;SDS011;53622;0.000;0.000;2022-12-29T05:59:58;2.50;;;2.20;;
66707;SDS011;53622;0.000;0.000;2022-12-29T06:02:28;2.08;;;1.85;;
66707;SDS011;53622;0.000;0.000;2022-12-29T06:04:58;2.10;;;1.92;;
66707;SDS011;53622;0.000;0.000;2022-12-29T06:07:28;2.05;;;1.85;;
66707;SDS011;53622;0.000;0.000;2022-12-29T06:09:59;2.55;;;2.25;;
66707;SDS011;53622;0.000;0.000;2022-12-29T06:12:32;2.20;;;2.00;;
66707;SDS011;53622;0.000;0.000;2022-12-29T06:15:02;3.38;;;2.42;;
66707;SDS011;53622;0.000;0.000;2022-12-29T06:17:32;3.00;;;2.40;;
66707;SDS011;53622;0.000;0.000;2022-12-29T06:20:01;2.88;;;2.22;;
66707;SDS011;53622;0.000;0.000;2022-12-29T06:22:31;2.78;;;2.58;;
66707;SDS011;53622;0.000;0.000;2022-12-29T06:25:02;2.55;;;2.35;;
66707;SDS011;53622;0.000;0.000;2022-12-29T06:27:34;2.40;;;2.20;;
66707;SDS011;53622;0.000;0.000;2022-12-29T06:30:05;2.40;;;2.20;;
66707;SDS011;53622;0.000;0.000;2022-12-29T06:32:38;2.35;;;2.15;;
66707;SDS011;53622;0.000;0.000;2022-12-29T06:35:10;8.20;;;2.05;;
66707;SDS011;53622;0.000;0.000;2022-12-29T06:37:44;2.53;;;1.90;;
66707;SDS011;53622;0.000;0.000;2022-12-29T06:40:15;3.22;;;2.08;;
66707;SDS011;53622;0.000;0.000;2022-12-29T06:43:02;4.22;;;2.25;;
66707;SDS011;53622;0.000;0.000;2022-12-29T06:45:49;2.25;;;1.98;;
66707;SDS011;53622;0.000;0.000;2022-12-29T06:48:19;2.88;;;2.33;;
66707;SDS011;53622;0.000;0.000;2022-12-29T06:50:48;4.65;;;2.30;;
66707;SDS011;53622;0.000;0.000;2022-12-29T06:53:17;2.40;;;2.20;;
66707;SDS011;53622;0.000;0.000;2022-12-29T06:55:48;3.25;;;2.00;;
66707;SDS011;53622;0.000;0.000;2022-12-29T06:58:17;2.60;;;2.40;;
66707;SDS011;53622;0.000;0.000;2022-12-29T07:00:47;3.30;;;2.08;;
66707;SDS011;53622;0.000;0.000;2022-12-29T07:03:16;2.47;;;2.28;;
66707;SDS011;53622;0.000;0.000;2022-12-29T07:05:46;2.25;;;1.90;;
66707;SDS011;53622;0.000;0.000;2022-12-29T07:08:15;2.92;;;2.65;;
66707;SDS011;53622;0.000;0.000;2022-12-29T07:10:45;2.63;;;2.42;;
66707;SDS011;53622;0.000;0.000;2022-12-29T07:13:16;8.07;;;2.65;;
66707;SDS011;53622;0.000;0.000;2022-12-29T07:15:45;4.25;;;2.67;;
66707;SDS011;53622;0.000;0.000;2022-12-29T07:18:15;4.63;;;3.30;;
66707;SDS011;53622;0.000;0.000;2022-12-29T07:20:44;8.98;;;3.03;;
66707;SDS011;53622;0.000;0.000;2022-12-29T07:23:13;7.85;;;3.05;;
66707;SDS011;53622;0.000;0.000;2022-12-29T07:25:43;4.80;;;3.10;;
66707;SDS011;53622;0.000;0.000;2022-12-29T07:28:14;11.18;;;2.97;;
66707;SDS011;53622;0.000;0.000;2022-12-29T07:30:47;6.90;;;3.00;;
66707;SDS011;53622;0.000;0.000;2022-12-29T07:33:16;5.93;;;3.55;;
66707;SDS011;53622;0.000;0.000;2022-12-29T07:35:45;5.72;;;2.88;;
66707;SDS011;53622;0.000;0.000;2022-12-29T07:38:15;3.50;;;2.97;;
66707;SDS011;53622;0.000;0.000;2022-12-29T07:40:44;3.17;;;2.47;;
66707;SDS011;53622;0.000;0.000;2022-12-29T07:43:14;3.75;;;2.85;;
66707;SDS011;53622;0.000;0.000;2022-12-29T07:46:00;4.93;;;2.80;;
66707;SDS011;53622;0.000;0.000;2022-12-29T07:48:29;6.50;;;3.20;;
66707;SDS011;53622;0.000;0.000;2022-12-29T07:51:00;6.05;;;2.80;;
66707;SDS011;53622;0.000;0.000;2022-12-29T07:53:30;3.95;;;2.70;;
66707;SDS011;53622;0.000;0.000;2022-12-29T07:55:59;6.15;;;2.75;;
66707;SDS011;53622;0.000;0.000;2022-12-29T07:58:28;6.47;;;2.95;;
66707;SDS011;53622;0.000;0.000;2022-12-29T08:00:58;6.38;;;2.55;;
66707;SDS011;53622;0.000;0.000;2022-12-29T08:03:28;9.90;;;2.60;;
66707;SDS011;53622;0.000;0.000;2022-12-29T08:05:58;9.02;;;2.63;;
66707;SDS011;53622;0.000;0.000;2022-12-29T08:08:27;6.63;;;2.20;;
66707;SDS011;53622;0.000;0.000;2022-12-29T08:10:57;3.40;;;2.47;;
66707;SDS011;53622;0.000;0.000;2022-12-29T08:13:27;4.70;;;2.20;;
66707;SDS011;53622;0.000;0.000;2022-12-29T08:15:57;4.97;;;2.70;;
66707;SDS011;53622;0.000;0.000;2022-12-29T08:18:28;6.18;;;2.50;;
66707;SDS011;53622;0.000;0.000;2022-12-29T08:21:00;4.18;;;2.40;;
66707;SDS011;53622;0.000;0.000;2022-12-29T08:23:30;6.20;;;2.40;;
66707;SDS011;53622;0.000;0.000;2022-12-29T08:26:00;6.38;;;2.33;;
66707;SDS011;53622;0.000;0.000;2022-12-29T08:28:31;5.75;;;2.40;;
66707;SDS011;53622;0.000;0.000;2022-12-29T08:31:01;3.20;;;2.20;;
66707;SDS011;53622;0.000;0.000;2022-12-29T08:33:32;3.97;;;2.53;;
66707;SDS011;53622;0.000;0.000;2022-12-29T08:36:02;9.82;;;3.22;;
66707;SDS011;53622;0.000;0.000;2022-12-29T08:38:33;7.57;;;3.17;;
66707;SDS011;53622;0.000;0.000;2022-12-29T08:41:02;6.88;;;2.75;;
66707;SDS011;53622;0.000;0.000;2022-12-29T08:43:31;6.88;;;2.80;;
66707;SDS011;53622;0.000;0.000;2022-12-29T08:46:01;4.50;;;2.92;;
66707;SDS011;53622;0.000;0.000;2022-12-29T08:48:31;4.35;;;2.47;;
66707;SDS011;53622;0.000;0.000;2022-12-29T08:51:01;8.27;;;2.90;;
66707;SDS011;53622;0.000;0.000;2022-12-29T08:53:30;3.85;;;2.63;;
66707;SDS011;53622;0.000;0.000;2022-12-29T08:56:00;4.68;;;2.60;;
66707;SDS011;53622;0.000;0.000;2022-12-29T08:58:40;5.70;;;2.70;;
66707;SDS011;53622;0.000;0.000;2022-12-29T09:01:10;4.25;;;2.60;;
66707;SDS011;53622;0.000;0.000;2022-12-29T09:03:41;3.50;;;2.20;;
66707;SDS011;53622;0.000;0.000;2022-12-29T09:06:30;3.97;;;2.50;;
66707;SDS011;53622;0.000;0.000;2022-12-29T09:09:06;7.80;;;2.80;;
66707;SDS011;53622;0.000;0.000;2022-12-29T09:11:35;7.05;;;3.22;;
66707;SDS011;53622;0.000;0.000;2022-12-29T09:14:05;6.18;;;3.08;;
66707;SDS011;53622;0.000;0.000;2022-12-29T09:16:34;12.98;;;3.67;;
66707;SDS011;53622;0.000;0.000;2022-12-29T09:19:06;6.20;;;3.33;;
66707;SDS011;53622;0.000;0.000;2022-12-29T09:21:35;10.50;;;3.88;;
66707;SDS011;53622;0.000;0.000;2022-12-29T09:24:05;17.15;;;5.05;;
66707;SDS011;53622;0.000;0.000;2022-12-29T09:26:34;24.60;;;5.90;;
66707;SDS011;53622;0.000;0.000;2022-12-29T09:29:11;16.70;;;4.93;;
66707;SDS011;53622;0.000;0.000;2022-12-29T09:31:40;16.92;;;4.82;;
66707;SDS011;53622;0.000;0.000;2022-12-29T09:34:11;18.30;;;3.70;;
66707;SDS011;53622;0.000;0.000;2022-12-29T09:36:40;13.55;;;4.15;;
66707;SDS011;53622;0.000;0.000;2022-12-29T09:39:10;14.02;;;4.07;;
66707;SDS011;53622;0.000;0.000;2022-12-29T09:41:41;9.85;;;4.20;;
66707;SDS011;53622;0.000;0.000;2022-12-29T09:44:18;11.73;;;4.00;;
66707;SDS011;53622;0.000;0.000;2022-12-29T09:46:52;10.13;;;3.88;;
66707;SDS011;53622;0.000;0.000;2022-12-29T09:49:26;10.40;;;3.80;;
66707;SDS011;53622;0.000;0.000;2022-12-29T09:52:04;8.52;;;4.88;;
66707;SDS011;53622;0.000;0.000;2022-12-29T09:54:41;15.82;;;5.13;;
66707;SDS011;53622;0.000;0.000;2022-12-29T09:57:29;15.55;;;4.38;;
66707;SDS011;53622;0.000;0.000;2022-12-29T10:00:05;12.90;;;4.82;;
66707;SDS011;53622;0.000;0.000;2022-12-29T10:02:42;9.20;;;4.22;;
66707;SDS011;53622;0.000;0.000;2022-12-29T10:05:35;13.85;;;4.78;;
66707;SDS011;53622;0.000;0.000;2022-12-29T10:08:20;9.48;;;4.57;;
66707;SDS011;53622;0.000;0.000;2022-12-29T10:11:05;13.90;;;4.50;;
66707;SDS011;53622;0.000;0.000;2022-12-29T10:13:46;12.70;;;4.40;;
66707;SDS011;53622;0.000;0.000;2022-12-29T10:16:31;8.93;;;3.88;;
66707;SDS011;53622;0.000;0.000;2022-12-29T10:19:14;10.23;;;4.55;;
66707;SDS011;53622;0.000;0.000;2022-12-29T10:22:03;26.73;;;4.93;;
66707;SDS011;53622;0.000;0.000;2022-12-29T10:24:39;11.40;;;4.50;;
66707;SDS011;53622;0.000;0.000;2022-12-29T10:27:11;11.75;;;4.07;;
66707;SDS011;53622;0.000;0.000;2022-12-29T10:29:43;12.70;;;4.50;;
66707;SDS011;53622;0.000;0.000;2022-12-29T10:32:20;12.32;;;4.75;;
66707;SDS011;53622;0.000;0.000;2022-12-29T10:34:55;10.23;;;4.38;;
66707;SDS011;53622;0.000;0.000;2022-12-29T10:37:32;10.88;;;4.88;;
66707;SDS011;53622;0.000;0.000;2022-12-29T10:40:12;7.25;;;4.05;;
66707;SDS011;53622;0.000;0.000;2022-12-29T10:42:49;9.95;;;4.20;;
66707;SDS011;53622;0.000;0.000;2022-12-29T10:45:21;8.02;;;4.30;;
66707;SDS011;53622;0.000;0.000;2022-12-29T10:47:53;6.88;;;4.28;;
66707;SDS011;53622;0.000;0.000;2022-12-29T10:50:28;8.77;;;4.25;;
66707;SDS011;53622;0.000;0.000;2022-12-29T10:53:04;12.57;;;4.07;;
66707;SDS011;53622;0.000;0.000;2022-12-29T10:55:35;11.95;;;4.80;;
66707;SDS011;53622;0.000;0.000;2022-12-29T10:58:06;7.85;;;4.28;;
66707;SDS011;53622;0.000;0.000;2022-12-29T11:00:40;9.98;;;4.28;;
66707;SDS011;53622;0.000;0.000;2022-12-29T11:03:33;14.02;;;4.93;;
66707;SDS011;53622;0.000;0.000;2022-12-29T11:06:18;7.68;;;4.03;;
66707;SDS011;53622;0.000;0.000;2022-12-29T11:08:55;7.95;;;4.00;;
66707;SDS011;53622;0.000;0.000;2022-12-29T11:11:28;11.98;;;4.40;;
66707;SDS011;53622;0.000;0.000;2022-12-29T11:14:07;10.30;;;4.00;;
66707;SDS011;53622;0.000;0.000;2022-12-29T11:16:40;10.18;;;3.60;;
66707;SDS011;53622;0.000;0.000;2022-12-29T11:22:12;12.73;;;4.15;;
66707;SDS011;53622;0.000;0.000;2022-12-29T11:24:45;6.20;;;3.97;;
66707;SDS011;53622;0.000;0.000;2022-12-29T11:27:16;14.55;;;4.10;;
66707;SDS011;53622;0.000;0.000;2022-12-29T11:29:50;12.77;;;3.90;;
66707;SDS011;53622;0.000;0.000;2022-12-29T11:32:21;13.10;;;4.03;;
66707;SDS011;53622;0.000;0.000;2022-12-29T11:34:55;15.57;;;4.00;;
66707;SDS011;53622;0.000;0.000;2022-12-29T11:37:27;13.93;;;3.97;;
66707;SDS011;53622;0.000;0.000;2022-12-29T11:40:01;38.47;;;5.07;;
66707;SDS011;53622;0.000;0.000;2022-12-29T11:42:35;15.13;;;4.75;;
66707;SDS011;53622;0.000;0.000;2022-12-29T11:45:09;20.45;;;4.07;;
66707;SDS011;53622;0.000;0.000;2022-12-29T11:47:45;18.00;;;4.65;;
66707;SDS011;53622;0.000;0.000;2022-12-29T11:50:17;20.58;;;4.25;;
66707;SDS011;53622;0.000;0.000;2022-12-29T11:52:50;20.30;;;4.50;;
66707;SDS011;53622;0.000;0.000;2022-12-29T11:55:27;13.63;;;3.92;;
66707;SDS011;53622;0.000;0.000;2022-12-29T11:57:59;15.98;;;4.05;;
66707;SDS011;53622;0.000;0.000;2022-12-29T12:00:32;20.27;;;4.07;;
66707;SDS011;53622;0.000;0.000;2022-12-29T12:08:07;18.10;;;4.57;;
66707;SDS011;53622;0.000;0.000;2022-12-29T12:10:49;21.00;;;4.68;;
66707;SDS011;53622;0.000;0.000;2022-12-29T12:13:29;14.60;;;3.50;;
66707;SDS011;53622;0.000;0.000;2022-12-29T12:16:04;13.55;;;3.72;;
66707;SDS011;53622;0.000;0.000;2022-12-29T12:18:39;19.65;;;4.50;;
66707;SDS011;53622;0.000;0.000;2022-12-29T12:27:00;24.90;;;4.95;;
66707;SDS011;53622;0.000;0.000;2022-12-29T12:29:34;19.08;;;3.50;;
66707;SDS011;53622;0.000;0.000;2022-12-29T12:32:10;12.55;;;3.50;;
66707;SDS011;53622;0.000;0.000;2022-12-29T12:34:44;17.88;;;3.70;;
66707;SDS011;53622;0.000;0.000;2022-12-29T12:37:18;16.35;;;4.00;;
66707;SDS011;53622;0.000;0.000;2022-12-29T12:40:29;17.95;;;3.60;;
66707;SDS011;53622;0.000;0.000;2022-12-29T12:43:16;21.48;;;4.53;;
66707;SDS011;53622;0.000;0.000;2022-12-29T12:46:19;13.50;;;4.00;;
66707;SDS011;53622;0.000;0.000;2022-12-29T12:49:07;16.80;;;3.63;;
66707;SDS011;53622;0.000;0.000;2022-12-29T12:51:51;20.73;;;4.10;;
66707;SDS011;53622;0.000;0.000;2022-12-29T12:54:35;18.08;;;3.90;;
66707;SDS011;53622;0.000;0.000;2022-12-29T12:57:22;16.20;;;3.70;;
66707;SDS011;53622;0.000;0.000;2022-12-29T13:00:07;14.07;;;3.80;;
66707;SDS011;53622;0.000;0.000;2022-12-29T13:02:43;18.48;;;3.80;;
66707;SDS011;53622;0.000;0.000;2022-12-29T13:05:28;10.15;;;3.05;;
66707;SDS011;53622;0.000;0.000;2022-12-29T13:08:21;14.07;;;3.95;;
66707;SDS011;53622;0.000;0.000;2022-12-29T13:11:13;15.70;;;3.50;;
66707;SDS011;53622;0.000;0.000;2022-12-29T13:14:03;15.88;;;3.58;;
66707;SDS011;53622;0.000;0.000;2022-12-29T13:16:48;10.38;;;3.20;;
66707;SDS011;53622;0.000;0.000;2022-12-29T13:19:25;13.75;;;3.20;;
66707;SDS011;53622;0.000;0.000;2022-12-29T13:22:02;25.02;;;4.03;;
66707;SDS011;53622;0.000;0.000;2022-12-29T13:24:40;19.23;;;3.95;;
66707;SDS011;53622;0.000;0.000;2022-12-29T13:27:23;21.20;;;3.67;;
66707;SDS011;53622;0.000;0.000;2022-12-29T13:30:04;17.35;;;4.28;;
66707;SDS011;53622;0.000;0.000;2022-12-29T13:32:44;16.27;;;4.07;;
66707;SDS011;53622;0.000;0.000;2022-12-29T13:35:27;26.95;;;4.63;;
66707;SDS011;53622;0.000;0.000;2022-12-29T13:38:09;22.30;;;4.53;;
66707;SDS011;53622;0.000;0.000;2022-12-29T13:40:41;18.00;;;3.92;;
66707;SDS011;53622;0.000;0.000;2022-12-29T13:43:15;10.00;;;3.53;;
66707;SDS011;53622;0.000;0.000;2022-12-29T13:45:46;15.50;;;3.95;;
66707;SDS011;53622;0.000;0.000;2022-12-29T13:48:29;14.90;;;3.72;;
66707;SDS011;53622;0.000;0.000;2022-12-29T13:51:08;17.83;;;3.65;;
66707;SDS011;53622;0.000;0.000;2022-12-29T13:53:54;17.27;;;3.53;;
66707;SDS011;53622;0.000;0.000;2022-12-29T13:56:42;16.90;;;3.20;;
66707;SDS011;53622;0.000;0.000;2022-12-29T13:59:20;13.13;;;3.10;;
66707;SDS011;53622;0.000;0.000;2022-12-29T14:01:54;23.00;;;3.90;;
66707;SDS011;53622;0.000;0.000;2022-12-29T14:04:29;39.65;;;4.43;;
66707;SDS011;53622;0.000;0.000;2022-12-29T14:07:03;45.55;;;5.70;;
66707;SDS011;53622;0.000;0.000;2022-12-29T14:09:43;35.38;;;4.30;;
66707;SDS011;53622;0.000;0.000;2022-12-29T14:15:21;30.58;;;4.20;;
66707;SDS011;53622;0.000;0.000;2022-12-29T14:18:03;26.55;;;4.50;;
66707;SDS011;53622;0.000;0.000;2022-12-29T14:20:41;25.90;;;4.20;;
66707;SDS011;53622;0.000;0.000;2022-12-29T14:23:27;21.77;;;3.90;;
66707;SDS011;53622;0.000;0.000;2022-12-29T14:26:12;19.15;;;4.15;;
66707;SDS011;53622;0.000;0.000;2022-12-29T14:28:45;27.33;;;4.25;;
66707;SDS011;53622;0.000;0.000;2022-12-29T14:31:33;15.70;;;4.20;;
66707;SDS011;53622;0.000;0.000;2022-12-29T14:34:15;19.10;;;3.80;;
66707;SDS011;53622;0.000;0.000;2022-12-29T14:36:57;27.80;;;4.60;;
66707;SDS011;53622;0.000;0.000;2022-12-29T14:39:33;28.60;;;4.30;;
66707;SDS011;53622;0.000;0.000;2022-12-29T14:42:06;21.33;;;3.70;;
66707;SDS011;53622;0.000;0.000;2022-12-29T14:44:46;24.00;;;4.28;;
66707;SDS011;53622;0.000;0.000;2022-12-29T14:47:18;17.48;;;3.53;;
66707;SDS011;53622;0.000;0.000;2022-12-29T14:49:51;18.73;;;3.53;;
66707;SDS011;53622;0.000;0.000;2022-12-29T14:52:22;22.10;;;4.38;;
66707;SDS011;53622;0.000;0.000;2022-12-29T14:54:54;18.63;;;3.40;;
66707;SDS011;53622;0.000;0.000;2022-12-29T14:57:32;34.30;;;4.93;;
66707;SDS011;53622;0.000;0.000;2022-12-29T15:00:06;27.27;;;4.30;;
66707;SDS011;53622;0.000;0.000;2022-12-29T15:02:44;22.73;;;3.75;;
66707;SDS011;53622;0.000;0.000;2022-12-29T15:08:07;18.77;;;3.25;;
66707;SDS011;53622;0.000;0.000;2022-12-29T15:10:39;25.73;;;4.70;;
66707;SDS011;53622;0.000;0.000;2022-12-29T15:13:15;23.42;;;3.88;;
66707;SDS011;53622;0.000;0.000;2022-12-29T15:15:49;18.27;;;4.70;;
66707;SDS011;53622;0.000;0.000;2022-12-29T15:18:22;28.92;;;4.28;;
66707;SDS011;53622;0.000;0.000;2022-12-29T15:20:54;33.53;;;5.38;;
66707;SDS011;53622;0.000;0.000;2022-12-29T15:23:26;28.08;;;5.05;;
66707;SDS011;53622;0.000;0.000;2022-12-29T15:25:58;25.52;;;4.95;;
66707;SDS011;53622;0.000;0.000;2022-12-29T15:28:36;28.60;;;4.78;;
66707;SDS011;53622;0.000;0.000;2022-12-29T15:31:10;36.75;;;4.47;;
66707;SDS011;53622;0.000;0.000;2022-12-29T15:33:41;44.40;;;5.47;;
66707;SDS011;53622;0.000;0.000;2022-12-29T15:36:13;25.60;;;5.18;;
66707;SDS011;53622;0.000;0.000;2022-12-29T15:38:47;84.65;;;9.27;;
66707;SDS011;53622;0.000;0.000;2022-12-29T15:41:25;28.50;;;6.53;;
66707;SDS011;53622;0.000;0.000;2022-12-29T15:44:01;29.75;;;5.50;;
66707;SDS011;53622;0.000;0.000;2022-12-29T15:46:40;26.42;;;5.72;;
66707;SDS011;53622;0.000;0.000;2022-12-29T15:49:11;24.33;;;5.63;;
66707;SDS011;53622;0.000;0.000;2022-12-29T15:51:44;18.42;;;5.45;;
66707;SDS011;53622;0.000;0.000;2022-12-29T15:54:16;20.85;;;5.03;;
66707;SDS011;53622;0.000;0.000;2022-12-29T15:56:46;18.20;;;5.05;;
66707;SDS011;53622;0.000;0.000;2022-12-29T15:59:23;19.00;;;4.88;;
66707;SDS011;53622;0.000;0.000;2022-12-29T16:01:55;13.55;;;4.55;;
66707;SDS011;53622;0.000;0.000;2022-12-29T16:04:29;14.90;;;5.03;;
66707;SDS011;53622;0.000;0.000;2022-12-29T16:07:22;21.27;;;4.60;;
66707;SDS011;53622;0.000;0.000;2022-12-29T16:09:57;17.08;;;4.38;;